Terminal Aerodrome Forecast
Issued by NWS

Home | Current Version | Previous Version | Graphics & Text | Print | Product List | Glossary On
Versions: 1 2 3 4 5 6 7 8 9 10 11 12 13
000
FTUS43 KIWX 242320
TAFSBN
TAF
KSBN 242320Z 2500/2524 30009KT P6SM SKC
     FM250200 27006KT P6SM FEW200
      TEMPO 2505/2508 BKN060
     FM251300 29012G22KT P6SM SCT040=

USA.gov is the U.S. government's official web portal to all federal, state and local government web resources and services.